createdAt,value
2023-04-13T00:03:34.571Z,9.86
2023-04-13T00:07:38.999Z,9.85
2023-04-13T00:11:42.062Z,9.81
2023-04-13T00:15:46.430Z,9.80
2023-04-13T00:19:50.285Z,9.77
2023-04-13T00:23:53.731Z,9.75
2023-04-13T00:27:56.690Z,9.74
2023-04-13T00:32:01.368Z,9.74
2023-04-13T00:36:04.417Z,9.72
2023-04-13T00:40:09.603Z,9.69
2023-04-13T00:44:12.505Z,9.66
2023-04-13T00:48:16.987Z,9.62
2023-04-13T00:52:21.352Z,9.57
2023-04-13T00:56:27.374Z,9.52
2023-04-13T01:00:30.870Z,9.41
2023-04-13T01:04:35.594Z,9.36
2023-04-13T01:08:45.432Z,9.34
2023-04-13T01:12:57.933Z,9.34
2023-04-13T01:17:09.282Z,9.33
2023-04-13T01:21:17.784Z,9.19
2023-04-13T01:25:39.056Z,9.15
2023-04-13T01:29:46.684Z,9.18
2023-04-13T01:33:51.351Z,9.19
2023-04-13T01:37:54.503Z,9.18
2023-04-13T01:42:02.189Z,9.18
2023-04-13T01:46:11.483Z,9.19
2023-04-13T01:50:29.706Z,9.20
2023-04-13T01:54:45.454Z,9.13
2023-04-13T01:58:51.145Z,9.04
2023-04-13T02:02:55.742Z,8.93
2023-04-13T02:06:58.843Z,8.92
2023-04-13T02:11:07.749Z,8.95
2023-04-13T02:15:12.006Z,8.87
2023-04-13T02:19:16.838Z,8.84
2023-04-13T02:23:19.934Z,8.80
2023-04-13T02:27:24.150Z,8.77
2023-04-13T02:31:27.153Z,8.77
2023-04-13T02:35:31.454Z,8.82
2023-04-13T02:39:37.302Z,8.83
2023-04-13T02:43:41.794Z,8.87
2023-04-13T02:47:45.304Z,8.89
2023-04-13T02:51:49.670Z,8.93
2023-04-13T02:55:55.597Z,8.97
2023-04-13T02:59:59.451Z,8.93
2023-04-13T03:04:12.014Z,8.96
2023-04-13T03:08:17.530Z,8.99
2023-04-13T03:12:44.845Z,9.03
2023-04-13T03:16:48.643Z,9.07
2023-04-13T03:20:53.335Z,9.08
2023-04-13T03:25:00.549Z,9.10
2023-04-13T03:29:10.048Z,9.14
2023-04-13T03:33:17.801Z,9.16
2023-04-13T03:37:21.674Z,9.18
2023-04-13T03:41:26.290Z,9.17
2023-04-13T03:45:29.602Z,9.18
2023-04-13T03:49:36.409Z,9.09
2023-04-13T03:53:40.213Z,9.03
2023-04-13T03:57:44.514Z,9.03
2023-04-13T04:01:52.312Z,9.05
2023-04-13T04:05:55.786Z,9.09
2023-04-13T04:10:00.520Z,9.11
2023-04-13T04:14:05.679Z,9.12
2023-04-13T04:18:09.309Z,9.09
2023-04-13T04:22:14.717Z,9.13
2023-04-13T04:26:25.632Z,9.14
2023-04-13T04:30:35.504Z,9.16
2023-04-13T04:34:41.538Z,9.19
2023-04-13T04:38:49.735Z,9.18
2023-04-13T04:42:53.942Z,9.15
2023-04-13T04:47:20.176Z,9.11
2023-04-13T04:51:53.060Z,9.07
2023-04-13T04:55:56.042Z,8.97
2023-04-13T05:00:30.830Z,8.89
2023-04-13T05:04:45.272Z,8.85
2023-04-13T05:08:50.038Z,8.80
2023-04-13T05:12:52.992Z,8.80
2023-04-13T05:16:56.647Z,8.76
2023-04-13T05:21:08.767Z,8.76
2023-04-13T05:25:14.653Z,8.76
2023-04-13T05:29:19.822Z,8.79
2023-04-13T05:33:24.310Z,8.73
2023-04-13T05:37:32.666Z,8.73
2023-04-13T05:41:37.250Z,8.71
2023-04-13T05:45:40.775Z,8.74
2023-04-13T05:49:48.090Z,8.76
2023-04-13T05:53:56.897Z,8.77
2023-04-13T05:58:00.686Z,8.76
2023-04-13T06:02:03.758Z,8.79
2023-04-13T06:06:08.687Z,8.82
2023-04-13T06:10:19.538Z,8.85
2023-04-13T06:14:23.490Z,8.87
2023-04-13T06:18:27.094Z,8.85
2023-04-13T06:22:30.950Z,8.86
2023-04-13T06:26:36.135Z,8.83
2023-04-13T06:30:39.321Z,8.77
2023-04-13T06:34:46.684Z,8.76
2023-04-13T06:38:52.050Z,8.80
2023-04-13T06:42:57.385Z,8.81
2023-04-13T06:47:21.109Z,8.81
2023-04-13T06:51:24.884Z,8.82
2023-04-13T06:55:29.842Z,8.82
2023-04-13T06:59:34.200Z,8.80
2023-04-13T07:03:37.336Z,8.82
2023-04-13T07:07:41.078Z,8.82
2023-04-13T07:11:45.014Z,8.82
2023-04-13T07:15:52.043Z,8.82
2023-04-13T07:19:55.561Z,8.81
2023-04-13T07:23:58.719Z,8.81
2023-04-13T07:28:01.960Z,8.80
2023-04-13T07:32:08.200Z,8.81
2023-04-13T07:36:13.037Z,8.81
2023-04-13T07:40:18.195Z,8.77
2023-04-13T07:44:24.811Z,8.77
2023-04-13T07:48:30.048Z,8.81
2023-04-13T07:52:39.449Z,8.86
2023-04-13T07:56:42.742Z,8.87
2023-04-13T08:00:47.059Z,8.89
2023-04-13T08:04:52.501Z,8.90
2023-04-13T08:09:01.990Z,8.91
2023-04-13T08:13:06.939Z,8.93
2023-04-13T08:17:09.950Z,8.96
2023-04-13T08:21:15.373Z,8.96
2023-04-13T08:25:21.366Z,8.95
2023-04-13T08:29:24.908Z,8.97
2023-04-13T08:33:28.452Z,9.03
2023-04-13T08:37:33.616Z,9.01
2023-04-13T08:41:41.162Z,9.01
2023-04-13T08:45:45.394Z,9.00
2023-04-13T08:49:50.308Z,8.97
2023-04-13T08:54:04.893Z,8.97
2023-04-13T08:58:14.770Z,8.99
2023-04-13T09:02:19.412Z,8.99
2023-04-13T09:06:35.671Z,8.93
2023-04-13T09:10:43.790Z,8.90
2023-04-13T09:14:48.222Z,8.92
2023-04-13T09:18:52.311Z,9.03
2023-04-13T09:22:55.267Z,9.07
2023-04-13T09:26:59.493Z,9.08
2023-04-13T09:31:05.977Z,9.05
2023-04-13T09:35:09.740Z,9.11
2023-04-13T09:39:14.533Z,9.17
2023-04-13T09:43:19.440Z,9.24
2023-04-13T09:47:22.869Z,9.27
2023-04-13T09:51:27.531Z,9.27
2023-04-13T09:55:31.183Z,9.28
2023-04-13T09:59:35.924Z,9.27
2023-04-13T10:03:39.637Z,9.28
2023-04-13T10:07:44.278Z,9.31
2023-04-13T10:11:50.751Z,9.34
2023-04-13T10:16:13.050Z,9.42
2023-04-13T10:20:16.460Z,9.52
2023-04-13T10:24:21.210Z,9.53
2023-04-13T10:28:26.299Z,9.56
2023-04-13T10:32:32.080Z,9.57
2023-04-13T10:36:43.134Z,9.62
2023-04-13T10:40:47.044Z,9.69
2023-04-13T10:44:51.788Z,9.71
2023-04-13T10:48:59.163Z,9.72
2023-04-13T10:53:05.095Z,9.74
2023-04-13T10:57:09.825Z,9.85
2023-04-13T11:01:17.754Z,9.96
2023-04-13T11:05:22.526Z,10.05
2023-04-13T11:09:25.595Z,10.03
2023-04-13T11:13:29.484Z,9.94
2023-04-13T11:17:33.426Z,9.87
2023-04-13T11:21:37.866Z,9.75
2023-04-13T11:25:52.409Z,9.68
2023-04-13T11:29:59.062Z,9.61
2023-04-13T11:34:02.233Z,9.60
2023-04-13T11:38:07.146Z,9.60
2023-04-13T11:42:10.453Z,9.62
2023-04-13T11:46:15.346Z,9.64
2023-04-13T11:50:19.588Z,9.56
2023-04-13T11:54:24.232Z,9.46
2023-04-13T11:58:28.305Z,9.36
2023-04-13T12:02:33.851Z,9.33
2023-04-13T12:06:42.624Z,9.27
2023-04-13T12:11:11.339Z,9.24
2023-04-13T12:15:23.057Z,9.23
2023-04-13T12:19:40.906Z,9.11
2023-04-13T12:23:53.994Z,9.01
2023-04-13T12:27:58.467Z,8.92
2023-04-13T12:32:03.934Z,8.92
2023-04-13T12:36:07.605Z,8.96
2023-04-13T12:40:12.749Z,9.03
2023-04-13T12:44:17.165Z,9.04
2023-04-13T12:48:20.888Z,9.08
2023-04-13T12:52:23.850Z,9.14
2023-04-13T12:56:27.090Z,9.16
2023-04-13T13:00:31.480Z,9.12
2023-04-13T13:04:34.600Z,9.12
2023-04-13T13:08:40.298Z,9.14
2023-04-13T13:12:43.831Z,9.18
2023-04-13T13:16:50.031Z,9.11
2023-04-13T13:20:54.325Z,8.99
2023-04-13T13:24:57.180Z,8.97
2023-04-13T13:29:00.442Z,8.93
2023-04-13T13:33:05.370Z,8.92
2023-04-13T13:37:08.933Z,8.90
2023-04-13T13:41:11.896Z,8.87
2023-04-13T13:45:15.099Z,8.83
2023-04-13T13:49:19.372Z,8.79
2023-04-13T13:53:40.602Z,8.82
2023-04-13T13:57:43.482Z,8.82
2023-04-13T14:01:46.993Z,8.81
2023-04-13T14:05:51.455Z,8.71
2023-04-13T14:09:54.394Z,8.68
2023-04-13T14:13:57.394Z,8.65
2023-04-13T14:18:09.186Z,8.60
2023-04-13T14:22:15.674Z,8.60
2023-04-13T14:26:18.818Z,8.50
2023-04-13T14:30:24.991Z,8.48
2023-04-13T14:34:29.562Z,8.40
2023-04-13T14:38:35.824Z,8.36
2023-04-13T14:42:38.749Z,8.36
2023-04-13T14:46:41.730Z,8.32
2023-04-13T14:50:44.675Z,8.35
2023-04-13T14:54:48.902Z,8.39
2023-04-13T14:58:51.944Z,8.49
2023-04-13T15:02:56.168Z,8.52
2023-04-13T15:07:00.234Z,8.53
2023-04-13T15:11:04.664Z,8.49
2023-04-13T15:15:08.533Z,8.46
2023-04-13T15:19:11.515Z,8.41
2023-04-13T15:23:20.059Z,8.39
2023-04-13T15:27:26.817Z,8.39
2023-04-13T15:31:29.907Z,8.40
2023-04-13T15:35:35.536Z,8.37
2023-04-13T15:39:38.448Z,8.37
2023-04-13T15:43:44.185Z,8.38
2023-04-13T15:47:47.200Z,8.37
2023-04-13T15:51:50.132Z,8.35
2023-04-13T15:55:53.108Z,8.34
2023-04-13T15:59:57.627Z,8.33
2023-04-13T16:04:00.909Z,8.35
2023-04-13T16:08:04.095Z,8.41
2023-04-13T16:12:08.565Z,8.43
2023-04-13T16:16:14.475Z,8.38
2023-04-13T16:20:21.352Z,8.33
2023-04-13T16:24:24.478Z,8.33
2023-04-13T16:28:28.709Z,8.34
2023-04-13T16:32:33.129Z,8.36
2023-04-13T16:36:36.839Z,8.34
2023-04-13T16:40:39.739Z,8.38
2023-04-13T16:44:42.664Z,8.40
2023-04-13T16:48:47.495Z,8.40
2023-04-13T16:52:50.475Z,8.33
2023-04-13T16:56:53.641Z,8.33
2023-04-13T17:00:57.448Z,8.35
2023-04-13T17:05:01.922Z,8.37
2023-04-13T17:09:05.300Z,8.35
2023-04-13T17:13:08.158Z,8.38
2023-04-13T17:17:12.014Z,8.35
2023-04-13T17:21:16.253Z,8.35
2023-04-13T17:25:19.480Z,8.34
2023-04-13T17:29:22.395Z,8.31
2023-04-13T17:33:28.025Z,8.28
2023-04-13T17:37:32.275Z,8.23
2023-04-13T17:41:35.365Z,8.27
2023-04-13T17:45:40.493Z,8.27
2023-04-13T17:49:44.761Z,8.28
2023-04-13T17:53:49.110Z,8.29
2023-04-13T17:57:52.082Z,8.27
2023-04-13T18:01:56.093Z,8.26
2023-04-13T18:05:59.128Z,8.20
2023-04-13T18:10:03.942Z,8.17
2023-04-13T18:14:08.947Z,8.18
2023-04-13T18:18:11.862Z,8.15
2023-04-13T18:22:15.211Z,8.08
2023-04-13T18:26:19.846Z,8.07
2023-04-13T18:30:22.916Z,8.07
2023-04-13T18:34:25.850Z,8.08
2023-04-13T18:38:28.860Z,8.10
2023-04-13T18:42:33.966Z,8.10
2023-04-13T18:46:36.964Z,8.12
2023-04-13T18:50:39.982Z,8.08
2023-04-13T18:54:42.924Z,8.02
2023-04-13T18:58:47.176Z,7.96
2023-04-13T19:02:52.461Z,7.93
2023-04-13T19:06:55.704Z,7.90
2023-04-13T19:10:58.784Z,7.88
2023-04-13T19:15:03.531Z,7.87
2023-04-13T19:19:06.513Z,7.76
2023-04-13T19:23:09.379Z,7.69
2023-04-13T19:27:12.475Z,7.68
2023-04-13T19:31:17.330Z,7.64
2023-04-13T19:35:22.411Z,7.60
2023-04-13T19:39:25.672Z,7.60
2023-04-13T19:43:28.837Z,7.60
2023-04-13T19:47:33.240Z,7.57
2023-04-13T19:51:36.613Z,7.52
2023-04-13T19:55:39.519Z,7.51
2023-04-13T19:59:44.106Z,7.51
2023-04-13T20:03:48.794Z,7.50
2023-04-13T20:07:51.789Z,7.53
2023-04-13T20:11:54.820Z,7.51
2023-04-13T20:15:58.068Z,7.47
2023-04-13T20:20:02.450Z,7.47
2023-04-13T20:24:05.970Z,7.45
2023-04-13T20:28:10.295Z,7.45
2023-04-13T20:32:13.351Z,7.40
2023-04-13T20:36:17.764Z,7.36
2023-04-13T20:40:26.989Z,7.37
2023-04-13T20:44:30.118Z,7.37
2023-04-13T20:52:41.957Z,7.33
2023-04-13T20:56:45.153Z,7.32
2023-04-13T21:00:48.038Z,7.32
2023-04-13T21:04:51.275Z,7.30
2023-04-13T21:08:55.649Z,7.31
2023-04-13T21:12:58.940Z,7.32
2023-04-13T21:17:01.932Z,7.29
2023-04-13T21:21:07.005Z,7.28
2023-04-13T21:25:11.682Z,7.28
2023-04-13T21:29:16.454Z,7.30
2023-04-13T21:33:19.419Z,7.27
2023-04-13T21:37:22.556Z,7.25
2023-04-13T21:41:26.897Z,7.23
2023-04-13T21:45:30.154Z,7.23
2023-04-13T21:49:33.182Z,7.21
2023-04-13T21:53:36.820Z,7.21
2023-04-13T21:57:41.510Z,7.21
2023-04-13T22:01:45.883Z,7.21
2023-04-13T22:05:49.154Z,7.19
2023-04-13T22:09:52.271Z,7.19
2023-04-13T22:13:56.983Z,7.15
2023-04-13T22:18:00.087Z,7.14
2023-04-13T22:22:03.167Z,7.11
2023-04-13T22:26:06.639Z,7.11
2023-04-13T22:30:12.254Z,7.12
2023-04-13T22:34:15.308Z,7.05
2023-04-13T22:38:18.557Z,6.99
2023-04-13T22:42:21.567Z,6.92
2023-04-13T22:46:25.983Z,6.86
2023-04-13T22:50:29.230Z,6.81
2023-04-13T22:54:32.819Z,6.73
2023-04-13T22:58:36.039Z,6.65
2023-04-13T23:02:40.861Z,6.58
2023-04-13T23:06:44.158Z,6.51
2023-04-13T23:10:47.355Z,6.48
2023-04-13T23:14:52.700Z,6.40
2023-04-13T23:18:58.386Z,6.37
2023-04-13T23:23:01.926Z,6.35
2023-04-13T23:27:05.088Z,6.40
2023-04-13T23:31:09.345Z,6.48
2023-04-13T23:35:13.693Z,6.59
2023-04-13T23:39:17.239Z,6.61
2023-04-13T23:43:20.227Z,6.59
2023-04-13T23:47:23.503Z,6.62
2023-04-13T23:51:29.367Z,6.63
2023-04-13T23:55:32.666Z,6.59
2023-04-13T23:59:35.675Z,6.52
